Hornepayne, Canada
Current Conditions -  °F | °C
As of 7:00 PM on Saturday 22 Nov 2014 (Local Time) from CYXZ Reporting Station
Drizzle Drizzle  
Wind Chill: -2°   Ceiling: 600
Heat Index:   Visibility: 1.5mi
Dew Point:   Wind: 9mph
Humidity: 100%   Direction: 240°WSW
Pressure: 29.69"   Gusts: NA
Location:  49.22°N, 84.78°W
Report Text: CYXZ 230000Z 24008KT 200V280 1 1/2SM -DZ BR OVC006 02/02 A2969 RMK ST8 LAST OBS/NEXT 231100UTC SLP065
Loading
Personal Weather Stations






























Interactive Weather Map New forecast layout! Learn more

10-Day Weather Forecast

Advertisements
Track Severe Weather on mobile